Time;durP1;ratioP1;P1;durP2;ratioP2;P2;SDS_P1;SDS_P2;PMS_P1;PMS_P2;Temp;Humidity;BMP_temperature;BMP_pressure;BME280_temperature;BME280_humidity;BME280_pressure;Samples;Min_cycle;Max_cycle;Signal;HPM_P1;HPM_P2
2021/06/20 00:01:59;;;;;;;79.72;16.00;;;;;;;21.15;96.47;99568.78;5087182;28;20068;-80
2021/06/20 00:04:29;;;;;;;223.15;21.10;;;;;;;21.03;98.56;99601.97;5100901;28;20067;-82
2021/06/20 00:06:57;;;;;;;185.30;19.75;;;;;;;20.63;98.47;99705.88;5090082;28;20052;-83
2021/06/20 00:09:25;;;;;;;281.88;25.77;;;;;;;19.93;99.71;99722.22;5082338;28;20053;-85
2021/06/20 00:11:54;;;;;;;123.32;17.60;;;;;;;19.82;100.00;99702.38;5080107;28;20053;-85
2021/06/20 00:14:21;;;;;;;175.15;23.33;;;;;;;19.99;100.00;99675.41;5098949;28;20406;-84
2021/06/20 00:16:49;;;;;;;65.88;15.50;;;;;;;20.13;100.00;99617.28;5099442;28;20487;-84
2021/06/20 00:19:16;;;;;;;30.65;9.93;;;;;;;20.15;100.00;99615.66;5099772;28;20476;-84
2021/06/20 00:21:43;;;;;;;28.17;8.85;;;;;;;20.08;100.00;99601.50;5100153;28;20052;-84
2021/06/20 00:24:11;;;;;;;36.60;10.07;;;;;;;19.93;100.00;99628.09;5091845;28;20052;-84
2021/06/20 00:26:38;;;;;;;27.70;12.43;;;;;;;19.81;100.00;99609.50;5079724;28;20051;-83
2021/06/20 00:29:07;;;;;;;31.30;13.25;;;;;;;19.94;100.00;99570.38;5079631;28;20057;-84
2021/06/20 00:31:34;;;;;;;29.23;14.95;;;;;;;20.06;100.00;99547.38;5083230;28;20051;-83
2021/06/20 00:34:02;;;;;;;27.45;14.27;;;;;;;20.14;100.00;99531.22;5092073;28;20055;-84
2021/06/20 00:36:29;;;;;;;24.08;13.73;;;;;;;20.18;100.00;99521.56;5098740;28;20059;-85
2021/06/20 00:38:56;;;;;;;23.67;13.07;;;;;;;20.05;100.00;99538.09;5099269;28;20048;-85
2021/06/20 00:41:24;;;;;;;23.88;12.30;;;;;;;20.05;100.00;99531.63;5099739;28;20059;-85
2021/06/20 00:43:52;;;;;;;24.83;12.40;;;;;;;19.93;100.00;99526.34;5095821;28;20044;-85
2021/06/20 00:46:21;;;;;;;30.23;12.38;;;;;;;19.90;100.00;99527.97;5099951;28;20063;-83
2021/06/20 00:48:48;;;;;;;18.55;10.90;;;;;;;19.85;100.00;99497.28;5099620;28;20372;-83
2021/06/20 00:51:21;;;;;;;36.13;10.88;;;;;;;19.93;100.00;99506.56;5099175;28;20056;-84
2021/06/20 00:53:49;;;;;;;16.95;8.70;;;;;;;19.77;100.00;99509.78;5098860;28;20059;-84
2021/06/20 00:56:17;;;;;;;24.80;7.80;;;;;;;19.71;100.00;99489.59;5086335;28;20068;-84
2021/06/20 00:58:45;;;;;;;13.25;7.45;;;;;;;19.57;100.00;99455.63;5080224;28;20049;-84
2021/06/20 01:01:13;;;;;;;15.77;8.25;;;;;;;19.51;100.00;99458.06;5079682;28;20059;-84
2021/06/20 01:03:47;;;;;;;18.00;8.35;;;;;;;19.53;100.00;99438.69;5080402;28;20051;-84
2021/06/20 01:06:14;;;;;;;10.35;7.00;;;;;;;19.50;100.00;99447.16;5078265;28;20052;-84
2021/06/20 01:08:47;;;;;;;17.23;7.30;;;;;;;19.58;100.00;99437.47;5094404;28;20047;-83
2021/06/20 01:11:14;;;;;;;13.77;7.32;;;;;;;19.63;100.00;99425.78;5097242;28;20063;-83
2021/06/20 01:13:43;;;;;;;12.65;7.22;;;;;;;19.62;100.00;99407.22;5098577;28;20056;-83
2021/06/20 01:16:11;;;;;;;10.80;6.25;;;;;;;19.58;100.00;99407.22;5098140;28;20056;-83
2021/06/20 01:18:39;;;;;;;12.30;6.05;;;;;;;19.70;100.00;99414.53;5097986;28;20055;-83
2021/06/20 01:21:09;;;;;;;10.75;5.38;;;;;;;19.75;100.00;99428.25;5097096;28;20044;-83
2021/06/20 01:23:38;;;;;;;75.90;9.27;;;;;;;19.70;100.00;99459.72;5095479;28;20388;-83
2021/06/20 01:26:05;;;;;;;15.88;7.38;;;;;;;19.69;100.00;99508.91;5076863;28;20057;-84
2021/06/20 01:28:41;;;;;;;113.25;12.25;;;;;;;19.49;100.00;99562.16;5077754;28;20052;-84
2021/06/20 01:31:12;;;;;;;242.77;18.65;;;;;;;19.04;100.00;99553.84;5076758;28;20059;-82
2021/06/20 01:33:42;;;;;;;76.80;8.75;;;;;;;18.99;100.00;99488.50;5078527;28;20048;-81
2021/06/20 01:36:11;;;;;;;16.08;5.72;;;;;;;19.06;100.00;99474.44;5097247;28;20047;-81
2021/06/20 01:38:41;;;;;;;15.43;5.55;;;;;;;19.14;100.00;99461.16;5096604;28;20048;-81
2021/06/20 01:41:08;;;;;;;12.48;6.63;;;;;;;19.17;100.00;99426.47;5097719;28;20052;-81
2021/06/20 01:43:35;;;;;;;9.23;4.80;;;;;;;19.17;100.00;99401.06;5096336;28;20052;-82
2021/06/20 01:46:03;;;;;;;21.00;5.85;;;;;;;19.20;100.00;99374.88;5096802;28;20052;-83
2021/06/20 01:48:30;;;;;;;9.15;5.07;;;;;;;19.42;100.00;99348.31;5098497;28;20538;-83
2021/06/20 01:50:58;;;;;;;10.50;4.65;;;;;;;19.44;100.00;99328.94;5096196;28;20052;-83
2021/06/20 01:53:25;;;;;;;8.93;3.95;;;;;;;19.45;100.00;99312.78;5099146;28;20048;-83
2021/06/20 01:55:55;;;;;;;12.50;5.13;;;;;;;19.51;100.00;99287.75;5098462;28;20059;-82
2021/06/20 01:58:22;;;;;;;9.38;4.70;;;;;;;19.66;100.00;99289.38;5097983;28;20064;-83
2021/06/20 02:00:52;;;;;;;9.80;4.03;;;;;;;19.75;100.00;99295.44;5098325;28;20059;-83
2021/06/20 02:03:23;;;;;;;27.63;4.20;;;;;;;19.78;100.00;99305.94;5097486;28;20047;-83
2021/06/20 02:05:52;;;;;;;9.50;4.40;;;;;;;19.94;100.00;99310.34;5098296;28;20480;-83
2021/06/20 02:08:20;;;;;;;16.08;5.63;;;;;;;19.91;100.00;99311.97;5099290;28;20059;-83
2021/06/20 02:10:49;;;;;;;13.90;6.32;;;;;;;20.05;100.00;99322.44;5098518;28;20059;-84
2021/06/20 02:13:18;;;;;;;16.33;7.65;;;;;;;20.14;100.00;99348.28;5096170;28;20048;-83
2021/06/20 02:15:45;;;;;;;7.72;5.53;;;;;;;20.06;100.00;99353.13;5086867;28;20057;-83
2021/06/20 02:18:13;;;;;;;14.20;6.25;;;;;;;20.08;100.00;99349.91;5078569;28;20052;-84
2021/06/20 02:20:41;;;;;;;11.30;6.30;;;;;;;20.03;100.00;99362.44;5078849;28;20048;-83
2021/06/20 02:23:08;;;;;;;14.48;7.47;;;;;;;20.14;100.00;99364.41;5089643;28;20122;-83
2021/06/20 02:25:37;;;;;;;11.65;6.50;;;;;;;20.23;100.00;99359.97;5086570;28;20052;-83
2021/06/20 02:28:05;;;;;;;11.68;5.65;;;;;;;20.24;100.00;99350.28;5096804;28;20056;-83
2021/06/20 02:30:34;;;;;;;13.30;6.00;;;;;;;20.14;100.00;99353.94;5097160;28;20063;-83
2021/06/20 02:33:01;;;;;;;8.35;4.57;;;;;;;20.21;100.00;99353.09;5096918;28;20067;-83
2021/06/20 02:35:29;;;;;;;7.82;4.00;;;;;;;19.94;100.00;99349.91;5100629;28;20048;-83
2021/06/20 02:37:56;;;;;;;9.55;4.80;;;;;;;19.99;100.00;99341.03;5099510;28;20495;-84
2021/06/20 02:40:26;;;;;;;7.82;4.60;;;;;;;19.90;100.00;99321.66;5100185;28;20052;-83
2021/06/20 02:42:54;;;;;;;9.55;5.00;;;;;;;19.93;100.00;99329.34;5099992;28;20048;-83
2021/06/20 02:45:25;;;;;;;7.60;5.43;;;;;;;20.05;100.00;99317.59;5105460;28;20048;-84
2021/06/20 02:47:54;;;;;;;9.80;5.78;;;;;;;19.99;100.00;99324.06;5106078;28;20055;-84
2021/06/20 02:50:24;;;;;;;11.63;6.10;;;;;;;20.08;100.00;99330.13;5105984;28;20059;-83
2021/06/20 02:52:52;;;;;;;12.20;5.53;;;;;;;20.24;100.00;99330.47;5098680;28;20053;-84
2021/06/20 02:55:20;;;;;;;7.80;5.07;;;;;;;20.31;100.00;99331.69;5085721;28;20056;-84
2021/06/20 02:57:48;;;;;;;10.55;6.05;;;;;;;20.28;100.00;99325.63;5085500;28;20476;-84
2021/06/20 03:00:19;;;;;;;9.52;5.65;;;;;;;20.33;100.00;99329.25;5085453;28;20055;-84
2021/06/20 03:02:47;;;;;;;10.90;5.32;;;;;;;20.36;100.00;99328.41;5099851;28;20067;-83
2021/06/20 03:05:16;;;;;;;11.50;6.40;;;;;;;20.56;100.00;99326.75;5105296;28;20063;-84
2021/06/20 03:07:43;;;;;;;11.20;6.57;;;;;;;20.52;100.00;99331.59;5104707;28;20056;-84
2021/06/20 03:10:11;;;;;;;8.70;5.75;;;;;;;20.44;100.00;99344.16;5104718;28;20416;-84
2021/06/20 03:12:39;;;;;;;15.98;6.40;;;;;;;20.41;100.00;99347.78;5105639;28;20052;-84
2021/06/20 03:15:07;;;;;;;11.88;6.47;;;;;;;20.34;100.00;99350.66;5105490;28;20047;-84
2021/06/20 03:17:35;;;;;;;13.75;6.60;;;;;;;20.22;100.00;99354.72;5105324;28;20052;-84
2021/06/20 03:20:02;;;;;;;13.25;6.72;;;;;;;20.35;100.00;99358.72;5103735;28;20059;-84
2021/06/20 03:22:31;;;;;;;15.00;6.47;;;;;;;20.63;100.00;99369.16;5093778;28;20052;-84
2021/06/20 03:24:59;;;;;;;9.40;6.30;;;;;;;20.57;100.00;99384.91;5098342;28;20048;-84
2021/06/20 03:27:26;;;;;;;12.18;7.00;;;;;;;20.16;100.00;99391.09;5104018;28;20047;-84
2021/06/20 03:29:53;;;;;;;13.00;6.97;;;;;;;20.10;100.00;99426.63;5103698;28;20064;-83
2021/06/20 03:32:21;;;;;;;14.95;7.53;;;;;;;20.28;100.00;99396.31;5102754;28;20063;-83
2021/06/20 03:34:52;;;;;;;12.85;7.28;;;;;;;20.20;100.00;99374.94;5090081;28;20064;-84
2021/06/20 03:37:22;;;;;;;13.30;7.68;;;;;;;19.85;100.00;99393.53;5082270;28;20060;-84
2021/06/20 03:39:51;;;;;;;16.27;8.32;;;;;;;19.99;100.00;99403.19;5082238;28;20044;-84
2021/06/20 03:42:19;;;;;;;14.27;7.85;;;;;;;19.93;100.00;99404.81;5083323;28;20057;-83
2021/06/20 03:44:46;;;;;;;17.10;8.30;;;;;;;19.55;100.00;99408.03;5093063;28;20062;-84
2021/06/20 03:47:14;;;;;;;13.80;6.95;;;;;;;19.47;100.00;99414.88;5101822;28;20052;-84
2021/06/20 03:49:41;;;;;;;11.70;7.63;;;;;;;19.48;100.00;99414.44;5100653;28;20047;-84
2021/06/20 03:52:09;;;;;;;14.57;8.25;;;;;;;19.51;100.00;99423.31;5101897;28;20052;-84
2021/06/20 03:54:36;;;;;;;13.20;8.00;;;;;;;19.51;100.00;99412.84;5094169;28;20078;-84
2021/06/20 03:57:05;;;;;;;16.42;8.15;;;;;;;19.61;100.00;99411.25;5081384;28;20064;-84
2021/06/20 03:59:32;;;;;;;13.63;8.07;;;;;;;19.47;100.00;99426.97;5092292;28;20063;-84
2021/06/20 04:02:00;;;;;;;16.05;8.10;;;;;;;19.50;100.00;99438.66;5101565;28;20487;-84
2021/06/20 04:04:27;;;;;;;14.07;8.27;;;;;;;19.45;100.00;99446.31;5101960;28;20052;-83
2021/06/20 04:06:54;;;;;;;11.85;7.75;;;;;;;19.42;100.00;99449.97;5102427;28;20063;-83
2021/06/20 04:09:27;;;;;;;10.73;6.95;;;;;;;19.64;100.00;99444.34;5101932;28;20056;-83
2021/06/20 04:11:54;;;;;;;13.63;7.47;;;;;;;19.50;100.00;99458.44;5102840;28;20059;-84
2021/06/20 04:14:23;;;;;;;12.13;7.35;;;;;;;19.61;100.00;99454.44;5101672;28;20056;-84
2021/06/20 04:16:51;;;;;;;13.10;7.88;;;;;;;19.55;100.00;99449.56;5102434;28;20059;-84
2021/06/20 04:19:18;;;;;;;15.23;7.75;;;;;;;19.60;100.00;99463.31;5102034;28;20048;-84
2021/06/20 04:21:46;;;;;;;18.42;8.90;;;;;;;19.63;100.00;99456.84;5102176;28;20055;-83
2021/06/20 04:24:13;;;;;;;16.63;7.47;;;;;;;19.34;100.00;99495.50;5095593;28;20064;-84
2021/06/20 04:26:44;;;;;;;14.38;7.70;;;;;;;19.58;100.00;99475.00;5081911;28;20057;-84
2021/06/20 04:29:11;;;;;;;12.25;8.25;;;;;;;19.63;100.00;99487.91;5081245;28;20539;-84
2021/06/20 04:31:40;;;;;;;14.82;8.63;;;;;;;19.70;100.00;99487.97;5080962;28;20048;-84
2021/06/20 04:34:08;;;;;;;13.15;8.65;;;;;;;19.71;100.00;99489.59;5088654;28;20488;-84
2021/06/20 04:36:36;;;;;;;15.55;8.80;;;;;;;19.62;100.00;99491.97;5101777;28;20063;-84
2021/06/20 04:39:07;;;;;;;11.82;8.23;;;;;;;19.53;100.00;99477.41;5101798;28;20059;-83
2021/06/20 04:41:34;;;;;;;12.68;7.38;;;;;;;19.61;100.00;99493.16;5102556;28;20040;-83
2021/06/20 04:44:04;;;;;;;10.00;7.00;;;;;;;19.63;100.00;99499.22;5100712;28;20055;-83
2021/06/20 04:46:33;;;;;;;;;;;;;;;19.77;100.00;99498.47;5102208;28;20044;-84
2021/06/20 04:49:06;;;;;;;10.27;7.20;;;;;;;19.59;100.00;99492.75;5100768;28;19920;-84
2021/06/20 04:51:35;;;;;;;11.75;6.95;;;;;;;19.80;100.00;99503.31;5100760;28;20059;-84
2021/06/20 04:54:03;;;;;;;8.05;6.60;;;;;;;19.84;99.46;99504.97;5100721;28;20452;-84
2021/06/20 04:56:30;;;;;;;12.70;6.60;;;;;;;19.94;97.89;99509.00;5101329;28;20368;-84
2021/06/20 04:58:58;;;;;;;12.10;6.97;;;;;;;19.84;96.85;99509.78;5100792;28;20047;-84
2021/06/20 05:01:26;;;;;;;8.43;6.57;;;;;;;20.06;96.88;99508.63;5100415;28;20052;-83
2021/06/20 05:03:55;;;;;;;11.15;6.90;;;;;;;20.16;95.61;99514.66;5084441;28;20048;-84
2021/06/20 05:06:24;;;;;;;11.88;7.28;;;;;;;20.34;95.44;99526.00;5079944;28;20377;-84
2021/06/20 05:08:52;;;;;;;8.63;6.47;;;;;;;20.35;93.67;99533.25;5080769;28;20059;-84
2021/06/20 05:11:19;;;;;;;11.18;7.03;;;;;;;20.29;93.03;99524.38;5080112;28;20074;-84
2021/06/20 05:13:46;;;;;;;9.57;5.80;;;;;;;20.24;91.88;99534.09;5094085;28;20423;-83
2021/06/20 05:16:14;;;;;;;7.95;5.70;;;;;;;20.36;91.25;99551.84;5100985;28;20395;-84
2021/06/20 05:18:41;;;;;;;7.95;5.28;;;;;;;20.28;89.93;99540.56;5100184;28;20048;-84
2021/06/20 05:21:08;;;;;;;7.95;6.20;;;;;;;20.40;91.37;99541.34;5100190;28;20067;-84
2021/06/20 05:23:37;;;;;;;7.88;5.80;;;;;;;20.51;91.54;99550.63;5099686;28;20055;-84
2021/06/20 05:26:05;;;;;;;9.48;6.63;;;;;;;20.62;92.20;99542.16;5101052;28;20056;-84
2021/06/20 05:28:32;;;;;;;8.23;6.05;;;;;;;20.63;91.54;99532.47;5100049;28;20058;-84
2021/06/20 05:30:59;;;;;;;7.65;6.25;;;;;;;20.63;90.87;99532.47;5099450;28;20048;-84
2021/06/20 05:33:27;;;;;;;8.43;6.22;;;;;;;20.97;92.73;99532.81;5100053;28;20058;-84
2021/06/20 05:35:54;;;;;;;7.38;5.60;;;;;;;21.15;92.19;99534.81;5099966;28;20052;-84
2021/06/20 05:38:21;;;;;;;7.60;5.85;;;;;;;21.15;89.34;99520.66;5099362;28;20052;-84
2021/06/20 05:40:50;;;;;;;7.25;5.75;;;;;;;20.97;88.65;99541.31;5099450;28;20052;-84
2021/06/20 05:43:18;;;;;;;8.88;5.65;;;;;;;21.21;89.46;99536.78;5099404;28;20079;-84
2021/06/20 05:45:46;;;;;;;6.53;4.90;;;;;;;21.03;86.75;99528.34;5099296;28;20051;-84
2021/06/20 05:48:13;;;;;;;6.22;4.85;;;;;;;21.14;87.98;99527.50;5099984;28;20488;-84
2021/06/20 05:50:40;;;;;;;6.80;4.65;;;;;;;21.04;86.52;99535.63;5099258;28;20059;-84
2021/06/20 05:53:08;;;;;;;5.95;3.92;;;;;;;20.86;86.25;99532.03;5101964;28;20052;-84
2021/06/20 05:55:35;;;;;;;6.28;4.13;;;;;;;20.82;87.03;99531.22;5101152;28;20165;-85
2021/06/20 05:58:04;;;;;;;4.78;3.40;;;;;;;20.80;87.48;99536.50;5100026;28;20404;-84
2021/06/20 06:00:32;;;;;;;7.03;3.85;;;;;;;20.67;87.10;99536.91;5101511;28;20385;-84
2021/06/20 06:03:00;;;;;;;5.40;2.90;;;;;;;20.64;86.13;99549.06;5101424;28;20048;-84
2021/06/20 06:05:28;;;;;;;7.55;3.92;;;;;;;20.71;85.85;99556.72;5101275;28;20408;-84
2021/06/20 06:07:56;;;;;;;7.07;3.00;;;;;;;20.63;84.42;99557.94;5104520;28;20356;-85
2021/06/20 06:10:24;;;;;;;4.18;3.35;;;;;;;20.70;84.35;99559.94;5105855;28;20056;-85
2021/06/20 06:12:52;;;;;;;5.05;3.00;;;;;;;20.68;84.83;99561.19;5095739;28;20049;-85
2021/06/20 06:15:20;;;;;;;4.55;2.95;;;;;;;20.80;84.84;99559.13;5090213;28;20052;-84
2021/06/20 06:17:49;;;;;;;3.55;2.70;;;;;;;20.76;82.77;99561.16;5101441;28;20063;-85
2021/06/20 06:20:19;;;;;;;4.85;2.88;;;;;;;20.68;82.07;99552.69;5086138;28;20063;-85
2021/06/20 06:22:47;;;;;;;6.22;3.63;;;;;;;20.78;83.78;99551.03;5085832;28;20056;-85
2021/06/20 06:25:14;;;;;;;4.18;3.45;;;;;;;21.23;82.63;99559.03;5103922;28;20066;-85
2021/06/20 06:27:43;;;;;;;5.47;3.22;;;;;;;21.52;79.87;99564.63;5106382;28;20059;-85
2021/06/20 06:30:12;;;;;;;5.93;3.33;;;;;;;21.63;77.12;99568.22;5107571;28;20048;-85
2021/06/20 06:32:42;;;;;;;6.40;3.60;;;;;;;21.80;79.95;99561.66;5107610;28;20054;-86
2021/06/20 06:35:11;;;;;;;6.05;3.33;;;;;;;21.99;77.24;99571.69;5103656;28;20054;-86
2021/06/20 06:37:40;;;;;;;4.88;3.60;;;;;;;22.00;76.58;99572.47;5109123;28;20062;-86
2021/06/20 06:40:09;;;;;;;3.70;3.28;;;;;;;21.98;76.99;99577.75;5106856;28;20055;-85
2021/06/20 06:42:37;;;;;;;3.40;2.90;;;;;;;22.05;76.20;99581.38;5104096;28;20044;-85
2021/06/20 06:45:05;;;;;;;4.57;3.22;;;;;;;21.98;73.39;99591.94;5096688;28;20052;-86
2021/06/20 06:47:34;;;;;;;5.82;2.80;;;;;;;21.61;74.69;99587.69;5099600;28;20055;-80
2021/06/20 06:50:05;;;;;;;3.70;2.67;;;;;;;21.68;75.71;99584.78;5091372;28;20044;-82
2021/06/20 06:52:34;;;;;;;5.15;2.80;;;;;;;21.50;71.01;99590.53;5099947;28;20043;-83
2021/06/20 06:55:02;;;;;;;4.53;2.70;;;;;;;21.53;73.04;99589.72;5105275;28;20048;-83
2021/06/20 06:57:31;;;;;;;3.80;2.72;;;;;;;21.55;71.77;99592.94;5090460;28;20055;-78
2021/06/20 06:59:58;;;;;;;4.43;2.78;;;;;;;21.68;70.73;99605.44;5082110;28;20049;-78
2021/06/20 07:02:26;;;;;;;4.43;2.65;;;;;;;21.54;70.12;99596.19;5100871;28;20051;-79
2021/06/20 07:04:53;;;;;;;5.40;2.67;;;;;;;21.94;68.66;99596.81;5098395;28;20384;-78
2021/06/20 07:07:22;;;;;;;3.60;2.45;;;;;;;21.89;67.34;99610.19;5098561;28;20059;-79
2021/06/20 07:09:49;;;;;;;4.45;2.70;;;;;;;21.77;68.77;99616.31;5093755;28;20056;-79
2021/06/20 07:12:16;;;;;;;5.55;2.55;;;;;;;22.09;67.39;99612.53;5093856;28;20055;-77
2021/06/20 07:14:44;;;;;;;5.43;2.42;;;;;;;22.41;68.27;99620.06;5099701;28;20048;-78
2021/06/20 07:17:11;;;;;;;3.70;2.30;;;;;;;22.45;65.95;99603.81;5098968;28;20044;-77
2021/06/20 07:19:39;;;;;;;3.35;2.28;;;;;;;22.40;65.74;99607.09;5099839;28;20051;-77
2021/06/20 07:22:10;;;;;;;4.65;2.63;;;;;;;22.65;63.96;99610.53;5100086;28;20055;-78
2021/06/20 07:24:45;;;;;;;2.50;2.30;;;;;;;22.82;65.10;99613.66;5088735;28;20063;-83
2021/06/20 07:27:13;;;;;;;5.18;2.50;;;;;;;23.26;65.86;99612.81;5081571;28;20056;-83
2021/06/20 07:29:45;;;;;;;3.17;2.53;;;;;;;23.67;66.56;99614.00;5089037;28;20032;-83
2021/06/20 07:32:13;;;;;;;4.95;2.42;;;;;;;23.68;64.46;99615.59;5102696;28;20048;-83
2021/06/20 07:34:40;;;;;;;3.67;2.20;;;;;;;23.75;60.00;99612.69;5100871;28;20059;-83
2021/06/20 07:37:08;;;;;;;5.03;2.60;;;;;;;23.83;61.88;99605.72;5089637;28;20053;-83
2021/06/20 07:39:35;;;;;;;3.55;2.25;;;;;;;24.09;61.02;99604.13;5079775;28;20083;-85
2021/06/20 07:42:06;;;;;;;3.72;2.40;;;;;;;24.18;61.15;99611.31;5092716;28;20052;-86
2021/06/20 07:44:33;;;;;;;3.88;2.13;;;;;;;24.08;60.34;99608.19;5101907;28;20052;-84
2021/06/20 07:47:00;;;;;;;3.97;2.20;;;;;;;24.01;60.68;99625.38;5105902;28;20044;-84
2021/06/20 07:49:28;;;;;;;3.53;2.33;;;;;;;23.84;59.93;99618.69;5106141;28;20048;-82
2021/06/20 07:51:55;;;;;;;3.47;2.42;;;;;;;23.90;59.33;99611.28;5103120;28;20055;-83
2021/06/20 07:54:23;;;;;;;3.90;2.20;;;;;;;23.75;61.19;99607.00;5103378;28;20052;-83
2021/06/20 07:56:50;;;;;;;3.08;2.10;;;;;;;24.01;59.45;99596.13;5105030;28;20056;-83
2021/06/20 07:59:21;;;;;;;2.83;2.33;;;;;;;24.44;59.26;99598.31;5104386;28;20377;-83
2021/06/20 08:01:50;;;;;;;4.68;2.60;;;;;;;25.33;53.87;99607.41;5086961;28;20053;-82
2021/06/20 08:04:18;;;;;;;4.38;2.10;;;;;;;26.02;51.61;99584.00;5101192;28;20052;-81
2021/06/20 08:06:46;;;;;;;2.65;2.10;;;;;;;26.76;49.32;99599.81;5104448;28;20059;-81
2021/06/20 08:09:13;;;;;;;3.78;2.30;;;;;;;27.36;50.08;99594.53;5106181;28;20385;-82
2021/06/20 08:11:40;;;;;;;3.15;2.30;;;;;;;27.41;46.74;99582.56;5105878;28;20058;-82
2021/06/20 08:14:08;;;;;;;3.72;2.13;;;;;;;28.13;46.44;99595.56;5107097;28;20479;-82
2021/06/20 08:16:37;;;;;;;2.80;2.30;;;;;;;28.52;46.28;99595.59;5106686;28;20423;-82
2021/06/20 08:19:04;;;;;;;4.20;1.80;;;;;;;28.57;46.36;99582.75;5107194;28;20047;-82
2021/06/20 08:21:32;;;;;;;4.20;2.30;;;;;;;28.39;45.70;99594.75;5106968;28;20051;-82
2021/06/20 08:23:59;;;;;;;3.08;1.90;;;;;;;29.13;43.92;99594.34;5106365;28;20048;-82
2021/06/20 08:26:26;;;;;;;3.33;1.58;;;;;;;29.33;44.00;99581.78;5107758;28;20047;-82
2021/06/20 08:28:54;;;;;;;5.13;2.40;;;;;;;30.09;41.81;99580.56;5106479;28;20048;-82
2021/06/20 08:31:21;;;;;;;9.13;2.92;;;;;;;30.63;39.95;99572.63;5105434;28;20047;-82
2021/06/20 08:33:50;;;;;;;3.25;1.92;;;;;;;31.08;38.99;99579.78;5101667;28;20044;-82
2021/06/20 08:36:19;;;;;;;3.33;2.20;;;;;;;31.59;38.86;99566.84;5086388;28;20048;-82
2021/06/20 08:38:46;;;;;;;3.65;2.08;;;;;;;32.39;37.63;99575.44;5087524;28;20049;-81
2021/06/20 08:41:15;;;;;;;3.20;1.80;;;;;;;31.51;38.52;99583.63;5086569;28;20523;-82
2021/06/20 08:43:42;;;;;;;;;;;;;;;31.26;36.68;99583.94;5086860;28;20048;-82
2021/06/20 08:46:11;;;;;;;2.40;1.85;;;;;;;32.30;36.50;99582.84;5086972;28;19931;-81
2021/06/20 08:48:38;;;;;;;2.70;1.90;;;;;;;31.82;36.68;99585.53;5086431;28;20056;-82
2021/06/20 08:51:08;;;;;;;4.25;1.95;;;;;;;33.50;34.58;99584.19;5084830;28;20053;-82
2021/06/20 08:53:36;;;;;;;4.25;2.00;;;;;;;33.22;35.37;99580.72;5085133;28;20401;-81
2021/06/20 08:56:04;;;;;;;3.75;1.70;;;;;;;31.81;36.93;99592.53;5106043;28;20051;-81
2021/06/20 08:58:34;;;;;;;3.78;2.20;;;;;;;32.63;34.33;99584.13;5106888;28;20062;-81
2021/06/20 09:01:05;;;;;;;3.65;2.13;;;;;;;31.91;36.01;99610.63;5104701;28;20062;-81
2021/06/20 09:03:39;;;;;;;3.92;1.83;;;;;;;32.48;34.01;99587.69;5105658;28;20499;-81
2021/06/20 09:06:16;;;;;;;2.67;1.95;;;;;;;33.01;34.76;99597.03;5105439;28;20048;-81
2021/06/20 09:08:48;;;;;;;3.17;1.35;;;;;;;33.07;33.36;99590.13;5104889;28;20055;-82
2021/06/20 09:11:26;;;;;;;4.05;2.00;;;;;;;33.61;34.22;99584.41;5104247;28;20051;-81
2021/06/20 09:14:06;;;;;;;3.22;2.20;;;;;;;35.17;29.94;99592.47;5086446;28;20071;-82
2021/06/20 09:16:34;;;;;;;2.58;1.77;;;;;;;35.96;28.84;99576.75;5082965;28;20059;-81
2021/06/20 09:19:03;;;;;;;3.30;1.90;;;;;;;36.49;27.59;99596.97;5082365;28;20060;-81
2021/06/20 09:21:33;;;;;;;2.55;2.05;;;;;;;37.48;27.59;99597.28;5083680;28;20474;-82
2021/06/20 09:24:00;;;;;;;2.22;1.80;;;;;;;38.31;24.70;99595.06;5088498;28;20048;-82
2021/06/20 09:26:38;;;;;;;2.00;1.40;;;;;;;37.46;24.96;99594.09;5102729;28;20058;-82
2021/06/20 09:29:08;;;;;;;3.55;1.60;;;;;;;38.18;25.12;99586.09;5102716;28;20519;-81
2021/06/20 09:31:49;;;;;;;2.53;1.90;;;;;;;39.00;26.20;99584.94;5101181;28;20477;-82
2021/06/20 09:34:17;;;;;;;2.15;1.20;;;;;;;39.14;23.80;99606.31;5099417;28;20052;-82
2021/06/20 09:36:47;;;;;;;1.85;1.45;;;;;;;37.51;24.20;99616.56;5099580;28;20503;-81
2021/06/20 09:39:22;;;;;;;3.22;1.50;;;;;;;38.13;23.26;99610.13;5100525;28;20056;-82
2021/06/20 09:41:57;;;;;;;1.63;1.20;;;;;;;36.52;23.99;99610.47;5100475;28;20055;-82
2021/06/20 09:44:36;;;;;;;2.38;1.60;;;;;;;37.36;25.74;99604.38;5101044;28;20052;-82
2021/06/20 09:47:04;;;;;;;2.28;1.58;;;;;;;37.63;25.71;99607.91;5099399;28;20063;-82
2021/06/20 09:49:35;;;;;;;2.43;1.60;;;;;;;38.15;23.86;99608.28;5100298;28;20052;-81
2021/06/20 09:52:05;;;;;;;2.17;1.50;;;;;;;39.08;22.53;99602.63;5100940;28;20489;-82
2021/06/20 09:54:37;;;;;;;1.70;1.60;;;;;;;39.66;21.78;99607.69;5133068;27;21501;-82
2021/06/20 09:57:14;;;;;;;3.53;1.70;;;;;;;40.37;19.61;99621.53;5122331;28;20056;-82
2021/06/20 09:59:42;;;;;;;1.92;1.70;;;;;;;40.56;20.85;99642.06;5121354;28;20403;-82
2021/06/20 10:02:14;;;;;;;1.95;1.60;;;;;;;40.86;18.79;99617.91;5121940;28;20062;-82
2021/06/20 10:04:41;;;;;;;2.63;1.67;;;;;;;40.68;18.60;99620.19;5120386;28;20051;-82
2021/06/20 10:07:14;;;;;;;3.25;1.50;;;;;;;38.26;21.99;99642.41;5122415;28;20047;-82
2021/06/20 10:09:41;;;;;;;2.17;1.98;;;;;;;39.77;20.47;99637.56;5120529;28;20040;-82
2021/06/20 10:12:12;;;;;;;2.08;1.75;;;;;;;40.09;19.93;99634.19;5116482;28;20043;-82
2021/06/20 10:14:43;;;;;;;3.25;1.58;;;;;;;41.50;18.94;99632.81;5111780;28;20055;-82
2021/06/20 10:17:15;;;;;;;2.38;1.85;;;;;;;42.42;17.41;99635.97;5107148;28;20135;-82
2021/06/20 10:19:51;;;;;;;3.22;1.80;;;;;;;42.51;16.89;99620.97;5106341;28;20051;-82
2021/06/20 10:22:20;;;;;;;2.28;1.27;;;;;;;42.30;17.38;99620.78;5106863;28;20044;-84
2021/06/20 10:24:50;;;;;;;2.30;1.27;;;;;;;40.07;19.56;99621.47;5112263;28;20047;-83
2021/06/20 10:27:29;;;;;;;2.47;1.67;;;;;;;41.18;17.50;99621.81;5115647;28;20063;-83
2021/06/20 10:29:58;;;;;;;3.20;1.80;;;;;;;41.84;16.83;99620.66;5109701;28;20052;-83
2021/06/20 10:32:28;;;;;;;2.20;1.83;;;;;;;41.91;16.70;99620.00;5106632;28;20507;-83
2021/06/20 10:34:58;;;;;;;1.90;1.70;;;;;;;41.00;16.81;99616.69;5116086;28;20063;-83
2021/06/20 10:37:32;;;;;;;2.42;1.70;;;;;;;40.86;17.55;99618.69;5115511;28;20051;-82
2021/06/20 10:40:02;;;;;;;2.17;1.40;;;;;;;39.25;18.77;99638.34;5120924;28;20043;-83
2021/06/20 10:42:37;;;;;;;3.22;1.92;;;;;;;38.89;19.39;99622.78;5118041;28;20437;-84
2021/06/20 10:45:06;;;;;;;2.35;2.08;;;;;;;40.82;17.09;99632.78;5113357;28;20054;-83
2021/06/20 10:47:36;;;;;;;4.40;2.08;;;;;;;40.93;17.10;99623.13;5118270;28;20048;-85
2021/06/20 10:50:06;;;;;;;2.22;1.55;;;;;;;38.94;19.16;99625.69;5118379;28;20048;-84
2021/06/20 10:52:35;;;;;;;1.40;1.05;;;;;;;36.99;21.35;99637.19;5113596;28;20408;-83
2021/06/20 10:55:11;;;;;;;2.15;1.40;;;;;;;34.93;23.50;99633.97;5117592;28;20048;-82
2021/06/20 10:57:54;;;;;;;2.47;1.10;;;;;;;34.16;24.49;99618.53;5121500;28;20051;-83
2021/06/20 11:00:27;;;;;;;3.20;2.00;;;;;;;36.09;22.35;99628.53;5121029;28;20058;-82
2021/06/20 11:02:55;;;;;;;2.00;1.80;;;;;;;37.86;20.46;99621.16;5121066;28;20058;-83
2021/06/20 11:05:24;;;;;;;3.60;1.90;;;;;;;38.28;20.42;99604.84;5121743;28;20047;-82
2021/06/20 11:08:04;;;;;;;2.45;1.77;;;;;;;40.17;18.81;99611.06;5118916;28;20488;-82
2021/06/20 11:10:32;;;;;;;2.45;1.90;;;;;;;41.28;16.50;99598.03;5120909;28;20048;-83
2021/06/20 11:12:59;;;;;;;2.30;1.80;;;;;;;41.24;16.73;99607.09;5119894;28;20066;-82
2021/06/20 11:15:28;;;;;;;2.73;2.00;;;;;;;40.65;16.94;99597.91;5120368;28;20047;-83
2021/06/20 11:18:06;;;;;;;3.55;1.77;;;;;;;40.65;17.56;99597.91;5121185;28;20048;-83
2021/06/20 11:20:34;;;;;;;2.15;1.60;;;;;;;40.86;16.89;99594.53;5120481;28;20062;-83
2021/06/20 11:23:04;;;;;;;1.92;1.50;;;;;;;40.35;17.33;99592.09;5118846;28;20048;-82
2021/06/20 11:25:31;;;;;;;2.38;1.65;;;;;;;41.28;16.61;99600.97;5100621;28;20056;-83
2021/06/20 11:27:59;;;;;;;1.85;1.70;;;;;;;41.62;16.34;99588.81;5100181;28;20048;-83
2021/06/20 11:30:26;;;;;;;2.85;1.65;;;;;;;42.61;15.32;99583.22;5099969;28;20067;-84
2021/06/20 11:32:53;;;;;;;2.77;1.20;;;;;;;40.81;16.90;99578.66;5099014;28;20052;-83
2021/06/20 11:35:21;;;;;;;1.90;1.33;;;;;;;41.04;16.87;99569.63;5117444;28;20048;-83